メインページ
METAR-TAF:

METAR-TAF

空港 :

エドモントン, アルバータ州, カナダ

エドモントン国際空港

緯度: 53-18N, 経度: 113-35W, 海抜: 715m

現時点の気象観測

当レポートは1時間9分前の21:00(UTC)に作成
西の風 11kt
気温 -10°C
湿度 48%
気圧 1014 hPa
視程: 24.1km
高度6000ftの雲はほとんどない
高度9300ftの千切れ雲あり
高度24000ftの千切れ雲あり

METAR: CYEG 192100Z 27011KT 15SM FEW060 BKN093 BKN240 M10/M19 A2993 RMK SC1AC5CI2 SC TR SLP198

時間: 15:09 (22:09 UTC)

予報

当レポートは1時間30分前の20:39(UTC)に作成
予報は19日の 21時(UTC)から 20日の 18時(UTC)まで有効
西の風 8kt
視程: 10km
高度6000ftの雲は散在している
高度9000ftの千切れ雲あり
20日の 0400時(UTC)から
西の風 8kt
視程: 10km
高度4000ftの雲は散在している
20日の 04時(UTC)から 20日の 12時(UTC)まで一時的に
高度4000ftの千切れ雲あり
20日の 1200時(UTC)から
西の風 8kt
視程: 10km
高度4000ftの千切れ雲あり
20日の 16時(UTC)から 20日の 18時(UTC)まで徐々に
の風 12kt

TAF: CYEG 192039Z 1921/2018 27008KT P6SM SCT060 BKN090 FM200400 26008KT P6SM SCT040 TEMPO 2004/2012 BKN040 FM201200 28008KT P6SM BKN040 BECMG 2016/2018 35012KT RMK NXT FCST BY 200000Z

4,000以上の空港の気象観測と天気予報(METAR報とTAF報)

利用可能な観測所は地図上に黄色い丸と赤い丸で示す。

丸の上にカーソルを重ねると観測所名を参照できる。

次にクリックすると気象観測と天気予報を参照できる。

マップの切り替え:黒色「×」印の緑ボタンをクリックして拡大、「-」印の緑ボタンをクリックして縮小、緑色の三角印をクリックして隣りの地図に切り替え


METAR-TAF: